Terminal Aerodrome Forecast
Issued by NWS Jacksonville, FL

Home | Current Version | Previous Version | Text Only | Print | Product List | Glossary On
Versions: 1 2 3 4 5 6 7 8 9 10 11 12 13 14 15
769
FTUS42 KJAX 220520
TAFGNV
TAF
KGNV 220520Z 2206/2306 06003KT P6SM FEW060 SCT150 BKN250
     FM221300 05005KT P6SM SCT025 BKN200
     FM221600 06008KT P6SM VCSH BKN030 BKN070
     FM222000 06010KT P6SM VCSH BKN045=

USA.gov is the U.S. government's official web portal to all federal, state and local government web resources and services.